»·PEaware :: N5002T KBUR-KBUR

N5002T :: KBUR-KBUR

FLIGHT INFORMATION

Flight Status: Arrived
Operator: Privately registered:
United States
More flights under this callsign
Pilot: Hunter M. (19355)
Aircraft: CESSNA 172 SKYHAWK
(C172)
More flights by this aircraft type
Origin: KBUR Bob Hope-Burbank
United States
Destination: KBUR Bob Hope-Burbank
United States
More flights between these airports :: More routes between these airports
Route: +SILEX
File this flight plan on PilotEdge
Remarks: practice approaches.
Altitude:
(Current/Filed)
4,000ft
Speed:
(Current/Filed)
115kts
Departed: 10-Nov-18 04:07 PM
Arrived: 10-Nov-18 04:46 PM
Distance/Time
Traveled:
0nm/0:39
Distance/Time
To Go:
Arrived

Flight Plot

Page will automatically refresh every two minutes.


Map Options




Map Legend


Flown Route
Filed Route
Departure Airport
Arrival Airport
Navaid (VOR, NDB)
Fix

Horizontal Profiles

Position Reports

Time Latitude Longitude Heading Altitude Ground
Speed
10-Nov-18 15:41 34.195909 -118.367141 180 781ft 0kts
10-Nov-18 15:42 34.195906 -118.367141 180 781ft 0kts
10-Nov-18 15:43 34.195903 -118.367141 180 781ft 0kts
10-Nov-18 15:44 34.195900 -118.367141 180 781ft 0kts
10-Nov-18 15:45 34.195897 -118.367141 180 781ft 0kts
10-Nov-18 15:46 34.195894 -118.367141 180 781ft 0kts
10-Nov-18 15:47 34.195890 -118.367141 180 781ft 0kts
10-Nov-18 15:48 34.195887 -118.367141 180 781ft 0kts
10-Nov-18 15:49 34.195884 -118.367141 180 781ft 0kts
10-Nov-18 15:50 34.195880 -118.367141 180 781ft 0kts
10-Nov-18 15:51 34.195877 -118.367141 180 781ft 0kts
10-Nov-18 15:52 34.195874 -118.367141 180 781ft 0kts
10-Nov-18 15:53 34.195870 -118.367142 180 781ft 0kts
10-Nov-18 15:54 34.195867 -118.367142 180 781ft 0kts
10-Nov-18 15:55 34.195863 -118.367142 180 781ft 0kts
10-Nov-18 15:56 34.195860 -118.367142 180 781ft 0kts
10-Nov-18 15:57 34.195856 -118.367142 180 781ft 0kts
10-Nov-18 15:58 34.195852 -118.367142 180 781ft 0kts
10-Nov-18 15:59 34.195848 -118.367142 180 781ft 0kts
10-Nov-18 16:00 34.195845 -118.367142 180 781ft 0kts
10-Nov-18 16:01 34.195841 -118.367142 180 781ft 0kts
10-Nov-18 16:02 34.195837 -118.367142 180 781ft 0kts
10-Nov-18 16:03 34.195833 -118.367142 180 781ft 0kts
10-Nov-18 16:04 34.195830 -118.367142 180 781ft 0kts
10-Nov-18 16:05 34.195826 -118.367142 180 781ft 0kts
10-Nov-18 16:06 34.196200 -118.366115 356 781ft 4kts
10-Nov-18 16:07 34.196725 -118.368331 269 781ft 13kts
10-Nov-18 16:08 34.197069 -118.368955 351 781ft 0kts
10-Nov-18 16:09 34.197908 -118.368702 88 781ft 10kts
10-Nov-18 16:10 34.197743 -118.353563 92 863ft 94kts
10-Nov-18 16:11 34.188664 -118.331168 133 1821ft 80kts
10-Nov-18 16:12 34.172800 -118.309730 133 2541ft 92kts
10-Nov-18 16:13 34.155027 -118.285266 133 3248ft 99kts
10-Nov-18 16:14 34.136297 -118.260561 133 3923ft 101kts
10-Nov-18 16:15 34.116431 -118.234313 133 3996ft 105kts
10-Nov-18 16:16 34.097232 -118.208603 133 4002ft 103kts
10-Nov-18 16:17 34.077836 -118.182911 132 4014ft 104kts
10-Nov-18 16:18 34.056243 -118.160080 146 4017ft 103kts
10-Nov-18 16:19 34.062008 -118.139513 329 4032ft 86kts
10-Nov-18 16:20 34.067536 -118.164071 271 4018ft 89kts
10-Nov-18 16:21 34.067199 -118.192152 272 4016ft 89kts
10-Nov-18 16:22 34.066776 -118.222110 271 4018ft 89kts
10-Nov-18 16:23 34.067381 -118.251756 281 4020ft 87kts
10-Nov-18 16:24 34.071505 -118.280959 281 4019ft 88kts
10-Nov-18 16:25 34.075584 -118.310024 281 4020ft 88kts
10-Nov-18 16:26 34.079660 -118.339293 281 4020ft 88kts
10-Nov-18 16:27 34.083695 -118.368516 281 4018ft 88kts
10-Nov-18 16:28 34.087680 -118.397831 281 4013ft 88kts
10-Nov-18 16:29 34.091530 -118.426542 281 4011ft 85kts
10-Nov-18 16:30 34.095266 -118.454777 281 4012ft 85kts
10-Nov-18 16:31 34.098983 -118.483116 281 4016ft 84kts
10-Nov-18 16:32 34.102635 -118.511289 281 4014ft 85kts
10-Nov-18 16:33 34.106306 -118.539727 281 4009ft 85kts
10-Nov-18 16:34 34.109927 -118.568056 281 4010ft 85kts
10-Nov-18 16:35 34.113518 -118.596454 280 4010ft 85kts
10-Nov-18 16:36 34.117023 -118.624736 280 4010ft 85kts
10-Nov-18 16:37 34.135847 -118.630376 5 4019ft 88kts
10-Nov-18 16:38 34.159922 -118.624983 5 4010ft 87kts
10-Nov-18 16:39 34.184003 -118.619622 6 3913ft 95kts
10-Nov-18 16:40 34.199079 -118.590018 70 3331ft 106kts
10-Nov-18 16:41 34.199324 -118.555718 85 2993ft 98kts
10-Nov-18 16:42 34.200693 -118.523526 91 3001ft 95kts
10-Nov-18 16:43 34.199232 -118.492548 88 2845ft 85kts
10-Nov-18 16:44 34.199111 -118.464919 86 2365ft 78kts
10-Nov-18 16:45 34.199057 -118.439479 89 1927ft 72kts
10-Nov-18 16:46 34.198515 -118.415475 91 1556ft 71kts
10-Nov-18 16:47 34.198469 -118.394055 90 1195ft 61kts
10-Nov-18 16:48 34.197964 -118.374503 89 907ft 55kts
10-Nov-18 16:49 34.197795 -118.364674 123 781ft 9kts
10-Nov-18 16:50 34.197064 -118.364478 179 781ft 0kts
10-Nov-18 16:51 34.197063 -118.364478 179 781ft 0kts
10-Nov-18 16:52 34.197062 -118.364478 179 781ft 0kts
10-Nov-18 16:53 34.195898 -118.363994 178 781ft 0kts
10-Nov-18 16:54 34.195833 -118.363991 178 781ft 0kts
10-Nov-18 16:55 34.195833 -118.363991 178 781ft 0kts
10-Nov-18 16:56 34.195832 -118.363991 178 781ft 0kts

Navigation Log

Ident Type
Flight plan parsing failed, navigation log unavailable